Time;durP1;ratioP1;P1;durP2;ratioP2;P2;SDS_P1;SDS_P2;PMS_P1;PMS_P2;Temp;Humidity;BMP_temperature;BMP_pressure;BME280_temperature;BME280_humidity;BME280_pressure;Samples;Min_cycle;Max_cycle;Signal;HPM_P1;HPM_P2
2023/12/12 00:00:50;;;;;;;5.57;2.05;;;;;;;18.87;44.93;100731.38;5068463;28;20679;-70
2023/12/12 00:03:15;;;;;;;5.68;1.60;;;;;;;18.86;44.74;100737.63;5063573;28;20036;-69
2023/12/12 00:05:40;;;;;;;4.72;1.55;;;;;;;18.90;44.86;100736.41;5068280;28;20504;-69
2023/12/12 00:08:06;;;;;;;4.65;1.73;;;;;;;18.86;44.83;100732.34;5069364;28;20037;-70
2023/12/12 00:10:31;;;;;;;4.85;2.00;;;;;;;18.82;44.57;100730.91;5069373;28;20032;-69
2023/12/12 00:12:56;;;;;;;5.43;1.70;;;;;;;18.87;44.61;100733.16;5068832;28;20086;-70
2023/12/12 00:15:21;;;;;;;4.47;1.55;;;;;;;18.81;44.68;100730.06;5069239;28;20025;-69
2023/12/12 00:17:47;;;;;;;6.35;1.80;;;;;;;18.86;44.49;100737.63;5069299;28;20040;-70
2023/12/12 00:20:12;;;;;;;4.75;1.77;;;;;;;18.87;44.52;100749.00;5069297;28;20664;-70
2023/12/12 00:22:37;;;;;;;4.07;1.65;;;;;;;18.80;44.55;100733.69;5068619;28;20128;-69
2023/12/12 00:25:03;;;;;;;5.30;1.73;;;;;;;18.83;44.68;100741.34;5069313;28;20431;-69
2023/12/12 00:27:28;;;;;;;4.75;1.88;;;;;;;18.75;44.40;100732.38;5069233;28;20269;-69
2023/12/12 00:29:55;;;;;;;5.20;1.80;;;;;;;18.74;44.31;100728.94;5068809;28;20020;-70
2023/12/12 00:32:20;;;;;;;4.03;1.50;;;;;;;18.73;44.34;100719.31;5069111;28;20039;-69
2023/12/12 00:34:45;;;;;;;4.75;2.05;;;;;;;18.71;44.28;100726.53;5069156;28;20029;-69
2023/12/12 00:37:10;;;;;;;4.93;2.20;;;;;;;18.70;44.20;100724.88;5069045;28;20034;-70
2023/12/12 00:39:37;;;;;;;4.28;1.70;;;;;;;18.69;44.37;100733.72;5068941;28;20033;-70
2023/12/12 00:42:03;;;;;;;5.07;1.70;;;;;;;18.77;44.26;100739.22;5069260;28;20116;-69
2023/12/12 00:44:28;;;;;;;5.57;2.20;;;;;;;18.65;44.36;100719.97;5068088;28;20064;-70
2023/12/12 00:46:53;;;;;;;5.47;1.73;;;;;;;18.65;44.34;100719.97;5068544;28;20091;-69
2023/12/12 00:49:19;;;;;;;6.40;2.03;;;;;;;18.55;44.52;100700.63;5068494;28;20067;-69
2023/12/12 00:51:44;;;;;;;4.60;1.90;;;;;;;18.74;44.38;100730.72;5068407;28;20319;-70
2023/12/12 00:54:09;;;;;;;4.13;1.67;;;;;;;18.63;44.19;100716.63;5068519;28;20070;-69
2023/12/12 00:56:34;;;;;;;5.10;1.87;;;;;;;18.62;44.36;100707.03;5068350;28;20055;-70
2023/12/12 00:59:00;;;;;;;6.15;1.90;;;;;;;18.67;44.15;100725.97;5067252;28;20314;-69
2023/12/12 01:01:25;;;;;;;5.85;2.03;;;;;;;18.60;44.12;100713.44;5068895;28;20036;-70
2023/12/12 01:03:51;;;;;;;5.28;1.80;;;;;;;18.68;44.28;100721.53;5060718;28;20452;-69
2023/12/12 01:06:24;;;;;;;5.45;2.00;;;;;;;18.58;44.24;100700.38;5068199;28;20029;-70
2023/12/12 01:08:50;;;;;;;5.03;1.70;;;;;;;18.64;43.84;100714.81;5068214;28;20085;-69
2023/12/12 01:11:15;;;;;;;4.00;1.80;;;;;;;18.65;44.09;100727.06;5068598;28;20032;-70
2023/12/12 01:13:41;;;;;;;6.32;2.20;;;;;;;18.57;43.89;100709.25;5067358;28;20040;-70
2023/12/12 01:16:06;;;;;;;4.20;1.75;;;;;;;18.56;43.94;100704.91;5067939;28;20477;-70
2023/12/12 01:18:32;;;;;;;6.72;2.03;;;;;;;18.60;43.94;100708.16;5066300;28;20028;-71
2023/12/12 01:20:57;;;;;;;5.78;2.25;;;;;;;18.55;44.02;100703.25;5068256;28;20119;-70
2023/12/12 01:23:23;;;;;;;5.50;1.77;;;;;;;18.56;43.87;100704.09;5068232;28;20032;-70
2023/12/12 01:25:48;;;;;;;6.32;2.03;;;;;;;18.58;44.01;100700.38;5068354;28;20051;-69
2023/12/12 01:28:13;;;;;;;4.68;1.90;;;;;;;18.60;43.91;100703.69;5068554;28;20121;-70
2023/12/12 01:30:38;;;;;;;7.78;2.25;;;;;;;18.58;43.82;100702.16;5068519;28;20120;-70
2023/12/12 01:33:04;;;;;;;7.60;2.42;;;;;;;18.53;43.90;100696.44;5051231;28;20468;-70
2023/12/12 01:35:30;;;;;;;5.18;2.05;;;;;;;18.51;43.70;100686.00;5069959;28;20103;-69
2023/12/12 01:37:56;;;;;;;5.38;1.73;;;;;;;18.49;43.86;100683.50;5069493;28;20036;-69
2023/12/12 01:40:22;;;;;;;5.15;1.88;;;;;;;18.57;43.61;100703.13;5066554;28;20438;-68
2023/12/12 01:42:47;;;;;;;6.68;1.92;;;;;;;18.57;43.62;100698.69;5067855;28;20400;-69
2023/12/12 01:45:12;;;;;;;5.10;1.58;;;;;;;18.47;43.66;100688.06;5060496;28;20068;-69
2023/12/12 01:47:38;;;;;;;6.20;1.70;;;;;;;18.47;43.69;100689.91;5068782;28;20059;-70
2023/12/12 01:50:04;;;;;;;4.50;1.60;;;;;;;18.56;43.70;100704.09;5063265;28;20376;-70
2023/12/12 01:52:29;;;;;;;5.65;1.75;;;;;;;18.46;43.54;100690.84;5069154;28;20086;-69
2023/12/12 01:54:55;;;;;;;4.20;1.80;;;;;;;18.45;43.56;100691.81;5068925;28;20070;-70
2023/12/12 01:57:22;;;;;;;4.65;1.70;;;;;;;18.43;43.70;100689.28;5066658;28;20017;-70
2023/12/12 01:59:48;;;;;;;6.97;2.28;;;;;;;18.51;43.24;100701.84;5063818;28;20032;-69
2023/12/12 02:02:17;;;;;;;4.22;1.67;;;;;;;18.51;43.43;100704.47;5047047;28;20392;-69
2023/12/12 02:04:44;;;;;;;6.72;2.05;;;;;;;18.47;43.46;100701.28;5062051;28;20115;-69
2023/12/12 02:07:11;;;;;;;4.32;1.63;;;;;;;18.48;43.32;100704.75;5066356;28;20481;-70
2023/12/12 02:09:36;;;;;;;5.22;2.17;;;;;;;18.44;43.19;100698.06;5066599;28;20037;-69
2023/12/12 02:12:02;;;;;;;5.50;1.95;;;;;;;18.44;43.22;100698.88;5066516;28;20039;-70
2023/12/12 02:14:27;;;;;;;6.57;2.00;;;;;;;18.38;43.18;100686.22;5066639;28;20461;-70
2023/12/12 02:16:53;;;;;;;5.38;1.80;;;;;;;18.44;43.13;100695.44;5066457;28;20037;-69
2023/12/12 02:19:19;;;;;;;5.95;1.88;;;;;;;18.39;43.25;100687.91;5066697;28;20547;-69
2023/12/12 02:21:44;;;;;;;5.63;1.83;;;;;;;18.35;43.19;100681.19;5066512;28;20039;-68
2023/12/12 02:24:09;;;;;;;4.68;2.05;;;;;;;18.44;42.97;100688.34;5065688;28;20475;-70
2023/12/12 02:26:35;;;;;;;4.85;1.98;;;;;;;18.43;43.05;100686.66;5065804;28;20025;-69
2023/12/12 02:29:00;;;;;;;5.07;1.90;;;;;;;18.38;43.13;100674.84;5066036;28;20043;-69
2023/12/12 02:31:26;;;;;;;6.40;1.98;;;;;;;18.41;43.12;100685.13;5066488;28;20063;-69
2023/12/12 02:33:51;;;;;;;8.57;2.13;;;;;;;18.42;43.05;100682.38;5066054;28;20031;-70
2023/12/12 02:36:17;;;;;;;6.20;2.55;;;;;;;18.32;42.85;100663.00;5066138;28;20069;-69
2023/12/12 02:38:42;;;;;;;3.90;1.40;;;;;;;18.37;43.00;100668.69;5066200;28;20028;-69
2023/12/12 02:41:08;;;;;;;5.55;1.95;;;;;;;18.30;42.86;100662.28;5065897;28;20056;-69
2023/12/12 02:43:35;;;;;;;5.55;1.83;;;;;;;18.34;42.99;100665.50;5066069;28;20151;-70
2023/12/12 02:46:00;;;;;;;5.32;1.65;;;;;;;18.32;43.13;100668.25;5066035;28;20048;-70
2023/12/12 02:48:26;;;;;;;5.57;1.98;;;;;;;18.38;42.89;100680.13;5065855;28;20060;-69
2023/12/12 02:50:51;;;;;;;7.80;2.28;;;;;;;18.28;42.93;100662.41;5065993;28;20028;-70
2023/12/12 02:53:16;;;;;;;6.03;1.83;;;;;;;18.34;42.80;100674.28;5066165;28;20032;-71
2023/12/12 02:55:42;;;;;;;3.80;1.50;;;;;;;18.29;42.86;100668.53;5065912;28;20393;-70
2023/12/12 02:58:07;;;;;;;5.20;1.70;;;;;;;18.31;42.85;100675.34;5065880;28;20028;-69
2023/12/12 03:00:32;;;;;;;5.68;2.13;;;;;;;18.25;42.71;100664.50;5065019;28;20043;-69
2023/12/12 03:02:58;;;;;;;5.23;1.77;;;;;;;18.34;42.62;100676.06;5061138;28;20040;-69
2023/12/12 03:05:23;;;;;;;4.60;1.70;;;;;;;18.33;42.55;100672.59;5062906;28;20342;-70
2023/12/12 03:07:48;;;;;;;5.18;1.83;;;;;;;18.23;42.57;100659.34;5065793;28;20792;-69
2023/12/12 03:10:14;;;;;;;5.38;1.63;;;;;;;18.28;42.57;100670.34;5065819;28;20078;-69
2023/12/12 03:12:39;;;;;;;5.13;1.70;;;;;;;18.26;42.46;100664.38;5066086;28;20111;-69
2023/12/12 03:15:04;;;;;;;5.18;1.60;;;;;;;18.21;42.56;100648.06;5066646;28;20032;-70
2023/12/12 03:17:30;;;;;;;4.07;1.80;;;;;;;18.21;42.56;100644.59;5065343;28;20128;-69
2023/12/12 03:19:55;;;;;;;4.65;1.60;;;;;;;18.17;42.52;100643.22;5066173;28;20025;-69
2023/12/12 03:22:21;;;;;;;6.85;1.80;;;;;;;18.18;42.59;100635.13;5066976;28;20043;-68
2023/12/12 03:24:46;;;;;;;4.47;1.60;;;;;;;18.28;42.57;100654.50;5069444;28;20037;-69
2023/12/12 03:27:11;;;;;;;4.97;1.70;;;;;;;18.27;42.68;100652.81;5068022;28;20096;-69
2023/12/12 03:29:38;;;;;;;5.28;1.67;;;;;;;18.24;42.70;100646.97;5068943;28;20046;-70
2023/12/12 03:32:03;;;;;;;5.13;2.00;;;;;;;18.26;42.64;100650.31;5069055;28;20028;-70
2023/12/12 03:34:29;;;;;;;4.13;1.40;;;;;;;17.94;42.73;100598.50;5050592;28;21229;-69
2023/12/12 03:36:54;;;;;;;4.93;1.60;;;;;;;18.26;42.42;100647.69;5069117;28;20036;-71
2023/12/12 03:39:19;;;;;;;5.95;1.83;;;;;;;18.17;42.45;100630.84;5068860;28;20289;-69
2023/12/12 03:41:44;;;;;;;5.93;1.88;;;;;;;18.19;42.57;100630.72;5069470;28;20029;-70
2023/12/12 03:44:10;;;;;;;5.30;1.80;;;;;;;18.25;42.43;100644.22;5068624;28;20051;-69
2023/12/12 03:46:35;;;;;;;6.32;1.70;;;;;;;18.25;42.64;100636.28;5068858;28;20397;-70
2023/12/12 03:49:00;;;;;;;6.18;1.83;;;;;;;18.16;42.51;100615.16;5069532;28;20063;-69
2023/12/12 03:51:26;;;;;;;6.73;1.80;;;;;;;18.24;42.47;100625.88;5068483;28;20028;-70
2023/12/12 03:53:51;;;;;;;6.22;1.70;;;;;;;18.15;42.40;100609.03;5068577;28;20301;-69
2023/12/12 03:56:16;;;;;;;5.50;1.80;;;;;;;18.16;42.66;100596.69;5047218;28;20071;-69
2023/12/12 03:58:42;;;;;;;5.87;1.67;;;;;;;18.22;42.38;100609.34;5068564;28;20304;-69
2023/12/12 04:01:07;;;;;;;4.78;1.65;;;;;;;18.22;42.39;100606.72;5069197;28;20292;-70
2023/12/12 04:03:32;;;;;;;6.10;1.70;;;;;;;18.18;42.42;100600.84;5062721;28;20045;-69
2023/12/12 04:06:01;;;;;;;6.47;2.00;;;;;;;18.20;42.42;100606.00;5068390;28;20074;-68
2023/12/12 04:08:27;;;;;;;4.57;1.73;;;;;;;18.13;42.22;100592.50;5068598;28;20020;-69
2023/12/12 04:10:52;;;;;;;4.78;1.90;;;;;;;18.20;42.30;100598.06;5068444;28;20055;-69
2023/12/12 04:13:18;;;;;;;5.38;1.70;;;;;;;18.20;42.37;100598.06;5067612;28;20037;-69
2023/12/12 04:15:43;;;;;;;4.50;1.70;;;;;;;18.19;42.42;100596.44;5067910;28;20380;-69
2023/12/12 04:18:08;;;;;;;4.63;1.70;;;;;;;18.10;42.47;100576.94;5068039;28;20270;-69
2023/12/12 04:20:33;;;;;;;6.45;2.20;;;;;;;18.19;42.32;100593.78;5068257;28;20085;-71
2023/12/12 04:22:59;;;;;;;4.40;1.90;;;;;;;18.09;42.20;100581.38;5068402;28;20914;-69
2023/12/12 04:25:24;;;;;;;4.47;1.65;;;;;;;18.04;42.34;100573.03;5068408;28;20028;-70
2023/12/12 04:27:49;;;;;;;6.20;2.13;;;;;;;18.18;42.18;100587.66;5068754;28;20055;-69
2023/12/12 04:30:15;;;;;;;6.20;2.00;;;;;;;18.08;42.49;100574.44;5068692;28;20032;-70
2023/12/12 04:32:40;;;;;;;7.85;2.10;;;;;;;18.16;42.35;100580.84;5068516;28;20052;-70
2023/12/12 04:35:08;;;;;;;6.65;2.08;;;;;;;18.16;42.35;100594.03;5068731;28;20024;-70
2023/12/12 04:37:34;;;;;;;4.43;1.60;;;;;;;18.07;42.63;100580.69;5068549;28;20032;-69
2023/12/12 04:39:59;;;;;;;4.80;1.92;;;;;;;18.15;42.28;100589.72;5068046;28;20392;-69
2023/12/12 04:42:24;;;;;;;4.22;1.60;;;;;;;18.09;42.65;100581.38;5068183;28;20036;-70
2023/12/12 04:44:50;;;;;;;5.45;2.00;;;;;;;18.11;42.55;100581.25;5068185;28;20153;-69
2023/12/12 04:47:16;;;;;;;4.00;1.90;;;;;;;18.13;42.52;100580.16;5067988;28;20092;-70
2023/12/12 04:49:41;;;;;;;4.97;1.95;;;;;;;18.06;42.60;100570.25;5068426;28;20500;-70
2023/12/12 04:52:06;;;;;;;6.17;2.33;;;;;;;18.12;42.48;100583.75;5068606;28;20040;-70
2023/12/12 04:54:32;;;;;;;4.53;1.48;;;;;;;17.97;42.46;100549.94;5068023;28;20253;-68
2023/12/12 04:56:58;;;;;;;7.65;2.75;;;;;;;18.12;42.51;100573.22;5067747;28;20063;-69
2023/12/12 04:59:23;;;;;;;6.55;1.80;;;;;;;18.11;42.57;100568.06;5067791;28;20032;-69
2023/12/12 05:01:49;;;;;;;5.05;1.60;;;;;;;18.05;42.50;100558.84;5066830;28;20090;-69
2023/12/12 05:04:14;;;;;;;5.10;2.03;;;;;;;18.01;42.54;100561.88;5064164;28;20021;-69
2023/12/12 05:06:40;;;;;;;5.80;1.80;;;;;;;18.09;42.66;100560.28;5066281;28;20551;-69
2023/12/12 05:09:05;;;;;;;6.20;1.98;;;;;;;18.09;42.17;100562.91;5067829;28;20028;-68
2023/12/12 05:11:30;;;;;;;4.60;1.73;;;;;;;18.05;42.36;100552.75;5067850;28;20024;-69
2023/12/12 05:13:58;;;;;;;7.88;2.20;;;;;;;18.06;42.44;100557.91;5067577;28;20495;-69
2023/12/12 05:16:24;;;;;;;4.50;1.75;;;;;;;18.02;42.74;100542.47;5064703;28;20033;-69
2023/12/12 05:18:49;;;;;;;5.55;1.77;;;;;;;18.09;42.47;100557.66;5046444;28;20036;-70
2023/12/12 05:21:14;;;;;;;5.93;2.17;;;;;;;18.02;42.55;100539.84;5055310;28;20124;-68
2023/12/12 05:23:41;;;;;;;5.57;2.10;;;;;;;18.04;42.94;100541.38;5067294;28;20032;-68
2023/12/12 05:26:06;;;;;;;5.45;1.95;;;;;;;18.07;42.70;100541.13;5067449;28;20037;-68
2023/12/12 05:28:31;;;;;;;7.28;2.08;;;;;;;18.00;42.68;100532.06;5066779;28;20024;-68
2023/12/12 05:30:57;;;;;;;6.20;1.90;;;;;;;17.99;42.77;100527.78;5066624;28;20036;-68
2023/12/12 05:33:22;;;;;;;5.28;1.85;;;;;;;18.00;42.70;100529.41;5065115;28;20374;-69
2023/12/12 05:35:48;;;;;;;7.90;2.20;;;;;;;17.97;43.00;100521.78;5066514;28;20078;-69
2023/12/12 05:38:13;;;;;;;5.10;2.00;;;;;;;17.97;43.06;100532.31;5063400;28;20440;-69
2023/12/12 05:40:39;;;;;;;4.90;2.08;;;;;;;18.05;42.92;100536.94;5067392;28;20568;-69
2023/12/12 05:43:04;;;;;;;5.57;1.80;;;;;;;18.06;43.01;100539.44;5066591;28;20029;-68
2023/12/12 05:45:30;;;;;;;6.88;2.05;;;;;;;18.02;42.91;100532.75;5066066;28;20723;-69
2023/12/12 05:47:55;;;;;;;5.88;2.03;;;;;;;17.99;42.70;100534.81;5066347;28;20032;-68
2023/12/12 05:50:20;;;;;;;4.80;1.80;;;;;;;18.05;42.75;100542.22;5066980;28;20028;-68
2023/12/12 05:52:46;;;;;;;7.40;2.13;;;;;;;17.95;42.94;100523.72;5058573;28;20102;-68
2023/12/12 05:55:11;;;;;;;6.22;1.95;;;;;;;18.04;42.83;100540.53;5066721;28;20477;-69
2023/12/12 05:57:37;;;;;;;4.60;1.95;;;;;;;18.04;43.02;100544.03;5066871;28;20027;-68
2023/12/12 06:00:06;;;;;;;6.43;2.28;;;;;;;17.99;43.00;100532.19;5066616;28;20032;-69
2023/12/12 06:02:31;;;;;;;5.75;2.05;;;;;;;18.01;43.13;100538.16;5065233;28;20476;-70
2023/12/12 06:04:57;;;;;;;5.78;1.73;;;;;;;18.03;42.98;100542.34;5062179;28;20029;-69
2023/12/12 06:07:22;;;;;;;7.80;1.90;;;;;;;17.97;43.11;100520.94;5066851;28;20032;-69
2023/12/12 06:09:47;;;;;;;4.03;1.48;;;;;;;18.02;42.89;100531.94;5066696;28;20046;-69
2023/12/12 06:12:14;;;;;;;4.85;1.67;;;;;;;17.99;43.17;100524.28;5066325;28;20028;-69
2023/12/12 06:14:39;;;;;;;5.47;1.95;;;;;;;17.97;43.21;100510.41;5066316;28;20063;-68
2023/12/12 06:17:05;;;;;;;6.05;1.80;;;;;;;17.98;43.03;100518.19;5066279;28;20064;-69
2023/12/12 06:19:30;;;;;;;6.28;1.98;;;;;;;17.96;43.33;100506.94;5065965;28;20083;-68
2023/12/12 06:21:56;;;;;;;4.50;1.85;;;;;;;18.12;43.19;100531.00;5062413;28;20036;-68
2023/12/12 06:24:22;;;;;;;4.13;1.75;;;;;;;18.06;43.35;100506.97;5066457;28;20528;-68
2023/12/12 06:26:48;;;;;;;4.63;1.50;;;;;;;18.16;43.22;100520.19;5055916;28;20102;-69
2023/12/12 06:29:13;;;;;;;5.20;1.77;;;;;;;18.19;43.39;100518.13;5064968;28;20416;-69
2023/12/12 06:31:39;;;;;;;5.03;1.70;;;;;;;18.11;43.37;100494.22;5061948;28;20655;-68
2023/12/12 06:34:05;;;;;;;5.57;2.22;;;;;;;18.15;43.55;100482.44;5065264;28;20033;-69
2023/12/12 06:36:30;;;;;;;5.70;1.75;;;;;;;18.19;43.54;100486.47;5063909;28;20036;-70
2023/12/12 06:38:56;;;;;;;4.93;1.88;;;;;;;18.28;43.54;100490.94;5066333;28;20593;-69
2023/12/12 06:41:21;;;;;;;4.22;1.50;;;;;;;18.22;43.24;100475.66;5065877;28;20036;-70
2023/12/12 06:43:46;;;;;;;5.93;1.88;;;;;;;18.35;43.55;100485.97;5065854;28;20127;-70
2023/12/12 06:46:12;;;;;;;5.47;1.60;;;;;;;18.29;43.77;100471.53;5065995;28;20052;-70
2023/12/12 06:48:38;;;;;;;4.90;1.70;;;;;;;18.32;44.02;100467.78;5066013;28;20111;-69
2023/12/12 06:51:04;;;;;;;5.93;1.88;;;;;;;18.41;43.88;100477.50;5065873;28;20031;-70
2023/12/12 06:53:30;;;;;;;6.15;2.10;;;;;;;18.41;43.77;100472.25;5065222;28;20511;-69
2023/12/12 06:55:55;;;;;;;6.60;1.73;;;;;;;18.44;43.87;100465.88;5065799;28;20029;-69
2023/12/12 06:58:22;;;;;;;4.60;1.50;;;;;;;18.40;44.21;100452.09;5069101;28;20032;-69
2023/12/12 07:00:47;;;;;;;5.38;1.63;;;;;;;18.42;43.99;100455.44;5070098;28;21169;-71
2023/12/12 07:03:13;;;;;;;4.38;1.50;;;;;;;18.54;44.11;100457.97;5065690;28;20060;-71
2023/12/12 07:05:39;;;;;;;6.78;1.85;;;;;;;18.51;44.46;100447.69;5068479;28;20551;-69
2023/12/12 07:08:04;;;;;;;5.05;2.08;;;;;;;18.56;44.56;100453.38;5069365;28;20427;-69
2023/12/12 07:10:33;;;;;;;5.13;1.60;;;;;;;18.51;44.59;100442.41;5069456;28;20036;-70
2023/12/12 07:12:59;;;;;;;5.10;1.70;;;;;;;18.58;44.43;100454.06;5069695;28;20028;-69
2023/12/12 07:15:27;;;;;;;7.43;2.55;;;;;;;18.58;44.37;100454.91;5065769;28;20036;-70
2023/12/12 07:17:53;;;;;;;6.07;1.77;;;;;;;18.59;44.33;100461.84;5047850;28;20424;-69
2023/12/12 07:20:21;;;;;;;6.38;1.83;;;;;;;18.53;44.07;100446.56;5057363;28;20432;-69
2023/12/12 07:22:46;;;;;;;6.35;1.90;;;;;;;18.60;44.21;100460.06;5068456;28;20418;-70
2023/12/12 07:25:12;;;;;;;5.75;1.70;;;;;;;18.60;44.17;100452.16;5069401;28;20032;-69
2023/12/12 07:27:37;;;;;;;6.63;2.00;;;;;;;18.57;44.15;100455.06;5069870;28;20024;-70
2023/12/12 07:30:03;;;;;;;6.33;1.80;;;;;;;18.61;44.08;100456.44;5069524;28;20037;-70
2023/12/12 07:32:29;;;;;;;6.28;2.03;;;;;;;18.60;44.35;100455.59;5069575;28;20265;-70
2023/12/12 07:34:54;;;;;;;6.28;1.63;;;;;;;18.51;44.33;100440.59;5068936;28;20047;-70
2023/12/12 07:37:19;;;;;;;6.40;1.70;;;;;;;18.50;44.33;100438.94;5069298;28;20033;-69
2023/12/12 07:39:45;;;;;;;6.95;2.05;;;;;;;18.59;44.00;100453.09;5069138;28;20460;-69
2023/12/12 07:42:10;;;;;;;7.32;1.80;;;;;;;18.63;44.06;100446.59;5069225;28;20039;-69
2023/12/12 07:44:35;;;;;;;5.43;1.70;;;;;;;18.53;44.27;100428.09;5068680;28;20114;-69
2023/12/12 07:47:01;;;;;;;6.55;2.35;;;;;;;18.61;44.05;100437.97;5069250;28;20469;-69
2023/12/12 07:49:30;;;;;;;7.28;1.77;;;;;;;18.61;43.87;100436.16;5064766;28;20040;-70
2023/12/12 07:51:56;;;;;;;5.85;1.90;;;;;;;18.53;44.39;100414.88;5063308;28;20032;-70
2023/12/12 07:54:22;;;;;;;5.63;1.75;;;;;;;18.56;44.46;100419.91;5067786;28;20516;-71
2023/12/12 07:56:47;;;;;;;6.60;2.10;;;;;;;18.54;44.24;100408.66;5068506;28;20024;-72
2023/12/12 07:59:12;;;;;;;6.28;2.00;;;;;;;18.54;44.43;100410.47;5068085;28;20063;-73
2023/12/12 08:01:39;;;;;;;5.38;1.58;;;;;;;18.64;44.27;100424.50;5068198;28;20025;-72
2023/12/12 08:04:05;;;;;;;6.45;1.90;;;;;;;18.64;44.44;100420.06;5059872;28;20028;-72
2023/12/12 08:06:31;;;;;;;5.47;2.03;;;;;;;18.65;44.66;100418.25;5068536;28;20379;-71
2023/12/12 08:08:56;;;;;;;7.13;1.90;;;;;;;18.66;44.58;100414.66;5067604;28;20037;-71
2023/12/12 08:11:24;;;;;;;6.80;1.70;;;;;;;18.57;44.90;100391.72;5067765;28;20028;-70
2023/12/12 08:13:50;;;;;;;6.10;1.92;;;;;;;18.62;44.61;100398.22;5048350;28;20272;-71
2023/12/12 08:16:15;;;;;;;5.70;1.98;;;;;;;18.59;44.75;100385.31;5064024;28;20028;-71
2023/12/12 08:18:41;;;;;;;6.03;1.98;;;;;;;18.61;44.60;100382.53;5060097;28;20133;-73
2023/12/12 08:21:09;;;;;;;5.93;1.60;;;;;;;18.61;44.67;100382.53;5067905;28;20139;-72
2023/12/12 08:23:37;;;;;;;5.90;2.00;;;;;;;18.69;44.79;100395.88;5067837;28;20032;-70
2023/12/12 08:26:05;;;;;;;5.40;1.63;;;;;;;18.60;44.61;100375.59;5068123;28;20396;-73
2023/12/12 08:28:30;;;;;;;5.93;1.60;;;;;;;18.66;44.58;100383.78;5068167;28;20044;-73
2023/12/12 08:30:56;;;;;;;5.43;1.50;;;;;;;18.66;44.80;100385.63;5068384;28;20032;-74
2023/12/12 08:33:21;;;;;;;5.55;1.90;;;;;;;18.62;44.62;100378.94;5067383;28;20020;-73
2023/12/12 08:35:46;;;;;;;6.40;1.65;;;;;;;18.66;44.61;100378.53;5067449;28;20119;-71
2023/12/12 08:38:12;;;;;;;7.28;1.95;;;;;;;18.66;44.66;100382.97;5044544;28;20033;-74
2023/12/12 08:40:37;;;;;;;8.88;2.10;;;;;;;18.63;44.74;100377.97;5067034;28;20090;-73
2023/12/12 08:43:02;;;;;;;5.70;1.63;;;;;;;18.61;44.55;100382.53;5041719;28;20033;-72
2023/12/12 08:45:29;;;;;;;7.50;2.15;;;;;;;18.62;44.74;100376.28;5067463;28;20032;-74
2023/12/12 08:47:54;;;;;;;6.53;1.65;;;;;;;18.63;44.37;100380.63;5067112;28;20445;-75
2023/12/12 08:50:20;;;;;;;18.85;2.15;;;;;;;18.61;44.47;100375.47;5049423;28;20037;-73
2023/12/12 08:52:46;;;;;;;5.63;2.00;;;;;;;18.63;44.61;100380.63;5067546;28;20428;-75
2023/12/12 08:55:11;;;;;;;6.72;2.03;;;;;;;18.59;44.62;100369.47;5066948;28;20116;-75
2023/12/12 08:57:36;;;;;;;6.90;1.92;;;;;;;18.60;44.40;100365.88;5067483;28;20032;-72
2023/12/12 09:00:03;;;;;;;5.85;1.50;;;;;;;18.48;44.48;100354.63;5067207;28;20078;-73
2023/12/12 09:02:29;;;;;;;5.70;1.95;;;;;;;18.59;44.53;100361.56;5063225;28;20496;-73
2023/12/12 09:04:55;;;;;;;6.63;2.13;;;;;;;18.52;44.47;100346.41;5062879;28;20024;-75
2023/12/12 09:07:21;;;;;;;7.72;1.80;;;;;;;18.50;44.39;100336.03;5067016;28;20067;-73
2023/12/12 09:09:47;;;;;;;7.43;1.92;;;;;;;18.58;44.41;100351.16;5067962;28;20059;-75
2023/12/12 09:12:12;;;;;;;5.88;2.22;;;;;;;18.54;44.57;100337.41;5067194;28;20511;-72
2023/12/12 09:14:38;;;;;;;5.10;2.03;;;;;;;18.51;44.07;100324.47;5066287;28;20069;-74
2023/12/12 09:17:03;;;;;;;6.13;1.85;;;;;;;18.56;44.53;100326.72;5067218;28;20041;-74
2023/12/12 09:19:29;;;;;;;6.47;1.70;;;;;;;18.56;44.64;100324.06;5065676;28;20071;-74
2023/12/12 09:21:56;;;;;;;6.82;1.98;;;;;;;18.54;44.33;100318.94;5066549;28;20077;-73
2023/12/12 09:24:21;;;;;;;7.07;2.10;;;;;;;18.54;44.47;100323.38;5067108;28;20073;-73
2023/12/12 09:26:46;;;;;;;7.78;1.92;;;;;;;18.52;44.50;100320.03;5067259;28;20028;-74
2023/12/12 09:29:12;;;;;;;6.57;2.05;;;;;;;18.43;44.66;100303.25;5066770;28;20035;-74
2023/12/12 09:31:37;;;;;;;7.50;2.03;;;;;;;18.54;44.32;100324.22;5066961;28;20389;-73
2023/12/12 09:34:03;;;;;;;6.72;1.90;;;;;;;18.45;44.41;100306.56;5050274;28;20488;-72
2023/12/12 09:36:28;;;;;;;5.85;1.70;;;;;;;18.55;44.30;100314.47;5067074;28;20059;-70
2023/12/12 09:38:53;;;;;;;6.70;1.95;;;;;;;18.47;44.71;100300.19;5066796;28;20043;-69
2023/12/12 09:41:23;;;;;;;7.03;1.70;;;;;;;18.52;44.76;100310.31;5067412;28;20032;-69
2023/12/12 09:43:49;;;;;;;5.97;1.83;;;;;;;18.55;44.74;100314.47;5067272;28;20269;-72
2023/12/12 09:46:16;;;;;;;4.35;1.63;;;;;;;18.53;44.65;100308.50;5067071;28;20045;-75
2023/12/12 09:48:43;;;;;;;4.72;1.40;;;;;;;18.57;44.55;100312.56;5066906;28;20075;-70
2023/12/12 09:51:09;;;;;;;4.60;1.58;;;;;;;18.57;44.52;100310.72;5066619;28;20032;-74
2023/12/12 09:53:35;;;;;;;4.90;1.48;;;;;;;18.56;44.64;100301.13;5066644;28;20028;-75
2023/12/12 09:56:06;;;;;;;6.30;1.73;;;;;;;18.48;44.42;100280.75;5066009;28;20032;-74
2023/12/12 09:58:32;;;;;;;8.55;1.90;;;;;;;18.48;44.63;100274.63;5065360;28;20555;-69
2023/12/12 10:01:01;;;;;;;5.53;1.60;;;;;;;18.57;44.65;100283.53;5066322;28;20036;-70
2023/12/12 10:03:28;;;;;;;8.13;1.90;;;;;;;18.59;44.49;100287.66;5057925;28;20048;-70
2023/12/12 10:05:56;;;;;;;6.43;1.92;;;;;;;18.58;44.70;100270.19;5066206;28;20041;-70
2023/12/12 10:08:22;;;;;;;5.10;1.85;;;;;;;18.58;44.56;100270.19;5063170;28;20028;-70
2023/12/12 10:10:52;;;;;;;7.38;1.95;;;;;;;18.49;44.41;100245.47;5065819;28;20040;-71
2023/12/12 10:13:17;;;;;;;5.20;1.35;;;;;;;18.59;44.77;100257.81;5062742;28;20072;-70
2023/12/12 10:15:43;;;;;;;6.07;1.70;;;;;;;18.54;44.75;100241.59;5066139;28;20094;-71
2023/12/12 10:18:10;;;;;;;6.60;1.77;;;;;;;18.60;44.54;100252.41;5066017;28;20042;-70
2023/12/12 10:20:35;;;;;;;3.90;1.38;;;;;;;18.60;44.56;100248.94;5061533;28;20277;-72
2023/12/12 10:23:02;;;;;;;4.72;1.52;;;;;;;18.58;44.52;100240.31;5062112;28;20115;-72
2023/12/12 10:25:29;;;;;;;5.50;1.63;;;;;;;18.59;44.62;100236.69;5063400;28;20469;-73
2023/12/12 10:27:55;;;;;;;7.55;2.00;;;;;;;18.57;44.64;100231.56;5065719;28;20029;-73
2023/12/12 10:30:21;;;;;;;5.00;1.58;;;;;;;18.45;44.86;100212.44;5065063;28;20043;-73
2023/12/12 10:32:51;;;;;;;4.43;1.50;;;;;;;18.61;44.77;100237.38;5066389;28;20464;-72
2023/12/12 10:35:20;;;;;;;6.47;1.60;;;;;;;18.51;44.79;100218.94;5064818;28;20036;-73
2023/12/12 10:37:46;;;;;;;5.97;1.65;;;;;;;18.55;44.63;100214.19;5066159;28;20396;-73
2023/12/12 10:40:21;;;;;;;4.18;1.33;;;;;;;18.57;44.55;100212.28;5066084;28;20047;-72
2023/12/12 10:42:48;;;;;;;6.18;1.52;;;;;;;18.61;45.02;100226.81;5065943;28;20029;-73
2023/12/12 10:45:14;;;;;;;5.07;1.50;;;;;;;18.60;44.69;100223.38;5065685;28;20075;-72
2023/12/12 10:47:44;;;;;;;4.90;1.38;;;;;;;18.57;44.65;100214.91;5066009;28;20087;-73
2023/12/12 10:50:13;;;;;;;6.03;1.83;;;;;;;18.61;44.78;100214.47;5065899;28;20378;-72
2023/12/12 10:52:39;;;;;;;5.45;1.20;;;;;;;18.56;44.43;100197.41;5066240;28;20033;-72
2023/12/12 10:55:05;;;;;;;5.22;1.35;;;;;;;18.59;44.84;100208.50;5058941;28;20094;-72
2023/12/12 10:57:31;;;;;;;4.68;1.50;;;;;;;18.55;44.98;100195.72;5047442;28;20048;-72
2023/12/12 10:59:59;;;;;;;6.57;1.38;;;;;;;18.55;44.72;100191.31;5065482;28;20072;-73
2023/12/12 11:02:25;;;;;;;5.70;1.73;;;;;;;18.59;45.06;100190.03;5060749;28;20033;-73
2023/12/12 11:04:50;;;;;;;4.03;1.30;;;;;;;18.53;45.56;100166.84;5060454;28;20538;-73
2023/12/12 11:07:16;;;;;;;4.10;1.10;;;;;;;18.60;45.43;100175.88;5065812;28;20021;-72
2023/12/12 11:09:43;;;;;;;3.92;1.25;;;;;;;18.62;45.40;100181.81;5063919;28;20020;-70
2023/12/12 11:12:10;;;;;;;4.85;1.23;;;;;;;18.46;45.33;100139.38;5060435;28;20094;-72
2023/12/12 11:14:36;;;;;;;5.55;1.15;;;;;;;18.64;45.35;100158.78;5062074;28;20037;-71
2023/12/12 11:17:07;;;;;;;4.43;1.25;;;;;;;18.61;45.38;100152.94;5065609;28;20025;-72